Time;durP1;ratioP1;P1;durP2;ratioP2;P2;SDS_P1;SDS_P2;PMS_P1;PMS_P2;Temp;Humidity;BMP_temperature;BMP_pressure;BME280_temperature;BME280_humidity;BME280_pressure;Samples;Min_cycle;Max_cycle;Signal;HPM_P1;HPM_P2
2022/05/18 00:01:45;;;;;;;3.17;2.13;;;;;;;16.63;68.91;99012.88;4997619;28;20262;-66
2022/05/18 00:04:11;;;;;;;5.33;2.40;;;;;;;16.72;68.07;99004.88;5007358;28;20223;-65
2022/05/18 00:06:38;;;;;;;3.67;2.30;;;;;;;16.69;69.70;99006.03;4976403;28;20579;-65
2022/05/18 00:09:05;;;;;;;4.60;2.13;;;;;;;16.62;69.36;99013.88;4994920;28;20221;-65
2022/05/18 00:11:32;;;;;;;11.27;2.83;;;;;;;16.55;68.95;99007.69;4996211;28;20289;-65
2022/05/18 00:14:01;;;;;;;5.80;2.50;;;;;;;16.46;70.04;99020.09;5007994;28;20211;-65
2022/05/18 00:16:28;;;;;;;7.07;2.20;;;;;;;16.51;69.49;99015.13;4988210;28;20561;-66
2022/05/18 00:18:57;;;;;;;3.83;2.10;;;;;;;16.45;70.91;99013.19;5013938;28;20234;-66
2022/05/18 00:21:25;;;;;;;4.33;2.53;;;;;;;16.38;69.97;99017.56;4980301;28;20221;-65
2022/05/18 00:23:52;;;;;;;5.13;2.40;;;;;;;16.35;70.63;99017.94;4993232;28;20224;-65
2022/05/18 00:26:18;;;;;;;3.97;2.10;;;;;;;16.34;71.66;99017.09;4985613;28;20562;-64
2022/05/18 00:28:45;;;;;;;4.43;2.30;;;;;;;16.26;71.18;99009.25;4993853;28;20201;-65
2022/05/18 00:31:14;;;;;;;4.80;2.40;;;;;;;16.29;71.00;99016.00;4993387;28;20658;-65
2022/05/18 00:33:40;;;;;;;4.90;2.20;;;;;;;16.28;69.89;99022.28;5000785;28;20217;-65
2022/05/18 00:36:09;;;;;;;3.93;2.33;;;;;;;16.37;68.92;99011.47;4994113;28;20206;-65
2022/05/18 00:38:36;;;;;;;5.37;2.23;;;;;;;16.36;70.47;99020.38;5001453;28;20194;-65
2022/05/18 00:41:02;;;;;;;6.17;2.43;;;;;;;16.30;70.94;99017.66;5004566;28;20198;-65
2022/05/18 00:43:40;;;;;;;4.57;2.40;;;;;;;16.34;70.28;99017.09;4987999;28;20233;-65
2022/05/18 00:46:09;;;;;;;4.23;2.20;;;;;;;16.39;70.00;99013.94;4990408;28;20278;-65
2022/05/18 00:48:38;;;;;;;7.50;2.40;;;;;;;16.38;71.05;99021.00;4990119;28;20678;-65
2022/05/18 00:51:09;;;;;;;3.73;2.10;;;;;;;16.39;70.15;99035.03;4987132;28;20256;-65
2022/05/18 00:53:42;;;;;;;6.17;2.37;;;;;;;16.47;69.84;99034.91;4992377;28;20199;-65
2022/05/18 00:56:13;;;;;;;4.07;2.33;;;;;;;16.55;68.33;99027.94;4974292;28;20206;-65
2022/05/18 00:58:43;;;;;;;4.77;2.40;;;;;;;16.49;68.30;99040.03;4994384;28;20648;-64
2022/05/18 01:01:10;;;;;;;4.67;2.47;;;;;;;16.41;68.67;99035.66;4989007;28;20204;-64
2022/05/18 01:03:41;;;;;;;6.93;2.30;;;;;;;16.41;69.39;99029.56;4993989;28;20848;-65
2022/05/18 01:06:14;;;;;;;5.47;2.43;;;;;;;16.31;69.47;99028.00;4987307;28;20667;-65
2022/05/18 01:08:49;;;;;;;6.97;2.27;;;;;;;16.34;69.35;99026.84;4990887;28;20199;-65
2022/05/18 01:11:17;;;;;;;3.83;2.50;;;;;;;16.27;69.57;99026.72;4970458;28;20201;-65
2022/05/18 01:13:44;;;;;;;5.30;2.33;;;;;;;16.35;69.98;99026.63;4989880;28;20269;-65
2022/05/18 01:16:12;;;;;;;2.63;2.17;;;;;;;16.27;69.73;99020.63;4986928;28;20281;-65
2022/05/18 01:18:58;;;;;;;4.23;2.33;;;;;;;16.20;71.14;99026.63;4988918;28;20201;-65
2022/05/18 01:21:30;;;;;;;4.47;2.60;;;;;;;16.27;72.40;99026.72;4985546;28;20211;-65
2022/05/18 01:24:07;;;;;;;4.80;2.30;;;;;;;16.28;70.32;99030.97;4988928;28;20272;-65
2022/05/18 01:26:43;;;;;;;4.00;2.60;;;;;;;16.22;70.13;99021.16;4989620;28;20252;-65
2022/05/18 01:29:11;;;;;;;8.43;2.90;;;;;;;16.26;70.47;99032.16;4985067;28;20280;-64
2022/05/18 01:31:50;;;;;;;3.70;2.23;;;;;;;16.23;72.00;99034.16;4989143;28;20221;-64
2022/05/18 01:34:20;;;;;;;4.90;2.30;;;;;;;16.29;70.42;99035.25;4987804;28;20545;-64
2022/05/18 01:36:47;;;;;;;5.13;2.30;;;;;;;16.21;69.35;99027.41;4989897;28;20215;-65
2022/05/18 01:39:18;;;;;;;3.47;2.00;;;;;;;16.26;70.61;99027.72;4986851;28;20646;-65
2022/05/18 01:41:55;;;;;;;3.70;2.13;;;;;;;16.21;70.23;99027.41;4988563;28;20238;-65
2022/05/18 01:44:23;;;;;;;3.57;2.20;;;;;;;16.22;69.62;99031.69;4972389;28;20221;-66
2022/05/18 01:46:50;;;;;;;4.03;1.97;;;;;;;16.10;69.97;99036.56;4991843;28;20213;-64
2022/05/18 01:49:18;;;;;;;6.17;2.23;;;;;;;16.05;70.52;99044.97;4992841;28;20199;-65
2022/05/18 01:51:47;;;;;;;5.37;2.33;;;;;;;16.02;70.16;99044.53;4992544;28;20297;-65
2022/05/18 01:54:15;;;;;;;4.73;2.30;;;;;;;15.97;70.98;99037.13;4984147;28;20197;-65
2022/05/18 01:56:43;;;;;;;4.20;2.17;;;;;;;16.00;70.79;99036.78;5000108;28;20266;-65
2022/05/18 01:59:12;;;;;;;2.93;2.17;;;;;;;15.92;70.68;99036.84;4990136;28;20205;-65
2022/05/18 02:01:40;;;;;;;3.83;2.27;;;;;;;16.05;70.01;99042.34;5008438;28;20242;-65
2022/05/18 02:04:06;;;;;;;9.10;2.30;;;;;;;16.03;70.49;99046.16;5004227;28;20231;-64
2022/05/18 02:06:35;;;;;;;3.57;2.37;;;;;;;15.99;70.47;99035.16;5011790;28;20272;-64
2022/05/18 02:09:04;;;;;;;6.30;2.33;;;;;;;15.97;70.55;99042.41;5012012;28;20193;-64
2022/05/18 02:11:34;;;;;;;6.87;2.73;;;;;;;16.02;69.06;99053.22;5011385;28;20222;-65
2022/05/18 02:14:01;;;;;;;3.07;2.27;;;;;;;16.06;69.66;99051.88;5012014;28;20194;-64
2022/05/18 02:16:29;;;;;;;4.10;2.30;;;;;;;16.06;69.43;99048.44;4982499;28;20209;-64
2022/05/18 02:18:56;;;;;;;4.47;2.30;;;;;;;16.05;69.70;99049.44;4997400;28;20198;-65
2022/05/18 02:21:23;;;;;;;3.80;2.53;;;;;;;16.11;69.16;99048.75;4982903;28;20209;-65
2022/05/18 02:23:50;;;;;;;2.90;2.20;;;;;;;16.11;68.92;99045.28;5011587;28;20217;-65
2022/05/18 02:26:18;;;;;;;4.63;2.30;;;;;;;16.12;68.52;99049.53;5001180;28;20270;-65
2022/05/18 02:28:46;;;;;;;4.93;2.40;;;;;;;16.04;68.40;99038.06;4996042;28;20605;-65
2022/05/18 02:31:14;;;;;;;3.43;2.10;;;;;;;16.02;68.17;99037.44;4994202;28;20194;-65
2022/05/18 02:33:43;;;;;;;4.13;2.47;;;;;;;16.04;68.72;99040.72;4987625;28;20193;-65
2022/05/18 02:36:12;;;;;;;8.60;2.50;;;;;;;16.01;69.42;99043.69;4991886;28;20193;-65
2022/05/18 02:38:40;;;;;;;4.77;2.30;;;;;;;16.04;67.69;99045.97;5001777;28;20233;-65
2022/05/18 02:41:08;;;;;;;3.13;2.30;;;;;;;16.11;69.61;99045.28;4992718;28;20201;-65
2022/05/18 02:43:38;;;;;;;3.53;2.03;;;;;;;16.05;69.80;99047.63;5010325;28;20212;-65
2022/05/18 02:46:08;;;;;;;5.10;2.20;;;;;;;16.03;68.83;99048.81;5010691;28;20196;-64
2022/05/18 02:48:35;;;;;;;2.20;1.83;;;;;;;16.06;68.79;99051.09;5010452;28;20624;-64
2022/05/18 02:51:04;;;;;;;3.90;2.20;;;;;;;16.17;66.93;99052.47;5010210;28;20247;-64
2022/05/18 02:53:31;;;;;;;5.10;2.13;;;;;;;16.24;67.84;99048.13;5011586;28;20204;-64
2022/05/18 02:56:06;;;;;;;3.37;2.17;;;;;;;16.27;66.75;99049.63;5007808;28;20200;-64
2022/05/18 02:58:36;;;;;;;2.50;1.90;;;;;;;16.26;66.54;99053.25;4990105;28;20190;-64
2022/05/18 03:01:04;;;;;;;2.97;2.03;;;;;;;16.25;66.86;99060.31;5001185;28;20197;-64
2022/05/18 03:03:50;;;;;;;4.07;2.20;;;;;;;16.31;67.69;99056.97;4999111;28;20230;-64
2022/05/18 03:06:21;;;;;;;4.07;2.20;;;;;;;16.23;68.52;99065.78;5004999;28;20197;-64
2022/05/18 03:08:49;;;;;;;5.20;2.10;;;;;;;16.25;68.95;99060.31;4997978;28;20196;-64
2022/05/18 03:11:16;;;;;;;3.73;2.10;;;;;;;16.18;68.17;99067.28;5005093;28;20252;-64
2022/05/18 03:13:43;;;;;;;3.10;2.33;;;;;;;16.07;68.01;99061.44;5009663;28;20661;-64
2022/05/18 03:16:11;;;;;;;4.27;2.10;;;;;;;16.06;67.63;99067.69;5009407;28;20208;-64
2022/05/18 03:18:38;;;;;;;3.80;2.30;;;;;;;16.01;69.14;99071.84;4985445;28;20619;-64
2022/05/18 03:23:51;;;;;;;5.70;2.53;;;;;;;15.96;69.12;99068.94;4997628;28;20294;-65
2022/05/18 03:26:20;;;;;;;3.17;2.50;;;;;;;15.99;68.24;99069.38;5013742;28;20649;-65
2022/05/18 03:28:49;;;;;;;2.67;2.20;;;;;;;15.98;68.13;99070.38;4998431;28;20203;-65
2022/05/18 03:31:17;;;;;;;2.37;2.17;;;;;;;16.03;68.76;99075.94;4986293;28;20260;-65
2022/05/18 03:33:44;;;;;;;2.87;2.30;;;;;;;16.03;68.13;99069.88;5007133;28;20193;-65
2022/05/18 03:36:14;;;;;;;5.93;2.60;;;;;;;16.09;68.41;99071.81;5013093;28;20185;-65
2022/05/18 03:38:44;;;;;;;3.23;2.30;;;;;;;16.12;67.64;99079.34;5012992;28;20283;-65
2022/05/18 03:41:13;;;;;;;3.30;2.27;;;;;;;16.19;67.43;99076.81;5006422;28;20640;-65
2022/05/18 03:43:41;;;;;;;6.43;2.90;;;;;;;16.29;66.56;99077.41;5004642;28;20217;-65
2022/05/18 03:46:09;;;;;;;4.77;2.57;;;;;;;16.35;67.17;99078.53;4987192;28;20198;-65
2022/05/18 03:48:37;;;;;;;5.43;2.30;;;;;;;16.32;66.56;99082.31;4993056;28;20207;-65
2022/05/18 03:51:06;;;;;;;3.70;2.30;;;;;;;16.40;66.18;99085.88;4993315;28;20187;-63
2022/05/18 03:53:34;;;;;;;6.50;2.50;;;;;;;16.44;66.63;99090.59;4955396;28;1388660;-63
2022/05/18 03:56:02;;;;;;;4.77;2.40;;;;;;;16.41;66.92;99088.34;5014033;28;20668;-63
2022/05/18 03:58:31;;;;;;;4.60;2.03;;;;;;;16.47;66.40;99097.34;4978766;28;20243;-63
2022/05/18 04:01:00;;;;;;;3.60;2.50;;;;;;;16.52;66.37;99093.16;5007780;28;20193;-63
2022/05/18 04:03:28;;;;;;;4.63;2.90;;;;;;;16.53;65.68;99099.28;5005301;28;20677;-63
2022/05/18 04:05:56;;;;;;;3.53;2.13;;;;;;;16.49;66.74;99092.72;5014082;28;20201;-64
2022/05/18 04:08:22;;;;;;;3.10;2.40;;;;;;;16.48;66.68;99097.16;5005031;28;20187;-64
2022/05/18 04:10:50;;;;;;;3.77;2.30;;;;;;;16.53;66.52;99099.28;4998251;28;20197;-64
2022/05/18 04:13:20;;;;;;;5.90;2.50;;;;;;;16.58;66.54;99099.56;4995574;28;20285;-64
2022/05/18 04:15:49;;;;;;;4.67;2.30;;;;;;;16.55;67.13;99102.56;4985971;28;20201;-64
2022/05/18 04:18:15;;;;;;;5.23;3.40;;;;;;;16.49;70.31;99113.81;4973879;28;20208;-64
2022/05/18 04:20:43;;;;;;;5.13;3.70;;;;;;;16.42;70.75;99112.88;4981569;28;20610;-64
2022/05/18 04:23:12;;;;;;;6.57;3.73;;;;;;;16.34;72.28;99119.03;4996105;28;20221;-64
2022/05/18 04:25:41;;;;;;;4.97;3.77;;;;;;;16.32;72.17;99128.94;5005437;28;20218;-64
2022/05/18 04:28:08;;;;;;;8.17;3.67;;;;;;;16.20;72.27;99129.34;5007282;28;20193;-64
2022/05/18 04:30:35;;;;;;;5.70;3.53;;;;;;;16.15;72.72;99128.19;5004067;28;20200;-64
2022/05/18 04:33:04;;;;;;;7.30;3.50;;;;;;;16.13;73.31;99135.44;4995059;28;20225;-64
2022/05/18 04:35:31;;;;;;;4.40;2.80;;;;;;;16.07;74.03;99140.41;5011577;28;20202;-64
2022/05/18 04:37:58;;;;;;;6.30;3.90;;;;;;;16.08;74.84;99138.63;4995529;28;20566;-64
2022/05/18 04:40:25;;;;;;;6.10;2.90;;;;;;;16.03;74.66;99139.13;5013800;28;20193;-64
2022/05/18 04:42:52;;;;;;;6.00;3.33;;;;;;;16.02;76.15;99141.94;5004869;28;20637;-64
2022/05/18 04:45:21;;;;;;;4.93;2.67;;;;;;;16.03;75.25;99143.59;5013491;28;20213;-64
2022/05/18 04:47:48;;;;;;;6.13;3.07;;;;;;;16.03;76.23;99152.28;5013031;28;20193;-64
2022/05/18 04:50:18;;;;;;;6.97;2.90;;;;;;;16.01;77.06;99153.47;4995102;28;20198;-64
2022/05/18 04:52:45;;;;;;;6.50;2.80;;;;;;;15.98;76.97;99162.53;5012508;28;20209;-64
2022/05/18 04:55:13;;;;;;;3.53;2.77;;;;;;;15.97;77.12;99160.88;5013296;28;20181;-64
2022/05/18 04:57:40;;;;;;;4.40;3.00;;;;;;;15.97;77.41;99158.25;4995095;28;20214;-64
2022/05/18 05:00:11;;;;;;;5.63;3.13;;;;;;;15.94;79.02;99154.16;5001987;28;20201;-64
2022/05/18 05:02:38;;;;;;;5.80;2.50;;;;;;;15.98;78.49;99159.88;4992297;28;20294;-64
2022/05/18 05:05:08;;;;;;;4.80;3.00;;;;;;;16.01;79.30;99159.53;4993572;28;20213;-64
2022/05/18 05:07:36;;;;;;;6.70;2.80;;;;;;;16.00;79.48;99165.00;4994998;28;20218;-64
2022/05/18 05:10:04;;;;;;;4.57;3.13;;;;;;;16.00;80.13;99163.16;5005085;28;20201;-64
2022/05/18 05:12:31;;;;;;;5.83;3.70;;;;;;;16.03;79.56;99160.19;4976826;28;20330;-64
2022/05/18 05:14:58;;;;;;;6.13;3.17;;;;;;;16.06;79.41;99167.75;4997959;28;20224;-64
2022/05/18 05:17:25;;;;;;;6.37;2.87;;;;;;;16.09;79.33;99167.41;4994759;28;20194;-64
2022/05/18 05:19:52;;;;;;;5.20;2.80;;;;;;;16.13;78.84;99167.88;5013026;28;20230;-64
2022/05/18 05:22:19;;;;;;;4.73;2.97;;;;;;;16.16;78.01;99169.34;4986644;28;20624;-64
2022/05/18 05:24:48;;;;;;;4.83;2.90;;;;;;;16.19;77.03;99167.19;5012352;28;20205;-64
2022/05/18 05:27:15;;;;;;;5.07;2.87;;;;;;;16.29;77.92;99177.50;5005149;28;20276;-64
2022/05/18 05:29:42;;;;;;;6.23;2.80;;;;;;;16.32;77.85;99173.72;5004023;28;20236;-64
2022/05/18 05:32:09;;;;;;;9.03;3.10;;;;;;;16.38;78.50;99178.28;5010609;28;20217;-64
2022/05/18 05:34:36;;;;;;;6.63;2.97;;;;;;;16.45;76.60;99178.38;4998062;28;20677;-64
2022/05/18 05:37:04;;;;;;;7.67;2.80;;;;;;;16.53;77.70;99181.78;4994708;28;20200;-64
2022/05/18 05:39:32;;;;;;;4.63;2.93;;;;;;;16.56;76.31;99177.16;5011946;28;20228;-64
2022/05/18 05:42:01;;;;;;;4.43;3.20;;;;;;;16.61;76.89;99174.81;4991384;28;20280;-64
2022/05/18 05:44:28;;;;;;;4.83;3.20;;;;;;;16.69;77.20;99180.00;5009765;28;20208;-64
2022/05/18 05:46:55;;;;;;;7.23;3.43;;;;;;;16.75;75.19;99179.31;5012422;28;20284;-64
2022/05/18 05:49:23;;;;;;;5.63;3.13;;;;;;;16.83;74.05;99173.16;5011929;28;20201;-64
2022/05/18 05:51:50;;;;;;;5.37;2.83;;;;;;;17.01;73.27;99179.94;4999150;28;20221;-64
2022/05/18 05:54:17;;;;;;;3.60;2.87;;;;;;;17.18;73.09;99172.72;4990042;28;20209;-64
2022/05/18 05:56:45;;;;;;;4.90;3.53;;;;;;;17.35;72.71;99179.47;5008302;28;20198;-64
2022/05/18 05:59:13;;;;;;;4.90;2.80;;;;;;;17.49;72.41;99177.00;5007335;28;20193;-64
2022/05/18 06:01:41;;;;;;;5.13;2.90;;;;;;;17.67;72.76;99181.91;4990646;28;20219;-64
2022/05/18 06:04:08;;;;;;;5.50;2.80;;;;;;;17.82;72.45;99182.72;5007110;28;20195;-64
2022/05/18 06:06:37;;;;;;;3.63;3.00;;;;;;;18.00;71.32;99189.44;5011806;28;20187;-64
2022/05/18 06:09:07;;;;;;;4.83;3.00;;;;;;;18.19;71.11;99192.47;5011833;28;20203;-65
2022/05/18 06:11:34;;;;;;;3.80;2.97;;;;;;;18.40;69.81;99189.88;5009690;28;20715;-65
2022/05/18 06:14:02;;;;;;;5.50;3.00;;;;;;;18.59;67.82;99200.84;5005581;28;20232;-65
2022/05/18 06:16:30;;;;;;;5.77;3.43;;;;;;;18.69;64.73;99200.50;5011761;28;20203;-65
2022/05/18 06:18:59;;;;;;;4.70;3.47;;;;;;;18.89;64.17;99203.34;5011653;28;20199;-65
2022/05/18 06:21:27;;;;;;;3.80;3.30;;;;;;;19.07;63.60;99204.72;5003069;28;20252;-65
2022/05/18 06:23:55;;;;;;;5.43;4.10;;;;;;;19.16;64.23;99206.19;5012059;28;20742;-65
2022/05/18 06:26:22;;;;;;;6.13;4.30;;;;;;;19.25;64.06;99196.28;5010962;28;20278;-65
2022/05/18 06:28:50;;;;;;;9.30;3.73;;;;;;;19.43;66.16;99204.56;4993937;28;20674;-65
2022/05/18 06:31:17;;;;;;;9.07;3.63;;;;;;;19.52;65.03;99207.88;5011276;28;20185;-65
2022/05/18 06:33:46;;;;;;;5.03;3.40;;;;;;;19.65;66.30;99211.59;5006557;28;20200;-65
2022/05/18 06:36:14;;;;;;;3.70;3.10;;;;;;;19.65;67.12;99215.06;5003437;28;20202;-64
2022/05/18 06:38:41;;;;;;;3.90;3.50;;;;;;;19.69;65.88;99218.94;5003260;28;20199;-66
2022/05/18 06:41:24;;;;;;;6.40;3.60;;;;;;;19.82;66.73;99209.44;5011303;28;20204;-65
2022/05/18 06:43:54;;;;;;;3.60;3.30;;;;;;;19.85;65.50;99209.88;5003788;28;20743;-65
2022/05/18 06:46:22;;;;;;;3.83;3.13;;;;;;;19.87;65.84;99209.66;4993297;28;20222;-65
2022/05/18 06:48:55;;;;;;;5.60;3.67;;;;;;;19.79;63.73;99209.81;5011464;28;20198;-64
2022/05/18 06:51:25;;;;;;;7.50;3.67;;;;;;;19.86;65.93;99208.03;5002471;28;20678;-64
2022/05/18 06:53:53;;;;;;;8.47;3.53;;;;;;;19.98;64.25;99214.44;5010628;28;20254;-65
2022/05/18 06:56:20;;;;;;;4.67;2.97;;;;;;;20.11;64.48;99213.69;4992840;28;20195;-65
2022/05/18 06:58:48;;;;;;;6.20;3.23;;;;;;;20.12;62.90;99219.78;4994761;28;20328;-64
2022/05/18 07:01:16;;;;;;;3.70;3.07;;;;;;;20.25;63.59;99211.03;4998485;28;20211;-65
2022/05/18 07:04:04;;;;;;;6.30;3.77;;;;;;;20.31;63.53;99208.44;4989540;28;20605;-65
2022/05/18 07:06:34;;;;;;;3.43;3.07;;;;;;;20.42;66.89;99208.84;4992797;28;20214;-65
2022/05/18 07:09:02;;;;;;;8.03;3.00;;;;;;;20.53;64.36;99210.09;5011228;28;20271;-65
2022/05/18 07:11:29;;;;;;;9.07;3.47;;;;;;;20.63;62.70;99218.47;5009506;28;20220;-65
2022/05/18 07:13:58;;;;;;;5.67;3.80;;;;;;;20.60;61.93;99218.88;4985165;28;20194;-65
2022/05/18 07:16:27;;;;;;;9.63;3.60;;;;;;;20.76;61.27;99225.63;5010695;28;20651;-65
2022/05/18 07:18:55;;;;;;;11.90;4.23;;;;;;;20.63;61.25;99218.47;5011305;28;20192;-66
2022/05/18 07:21:25;;;;;;;5.30;4.40;;;;;;;20.61;59.56;99218.69;4992905;28;20569;-65
2022/05/18 07:23:53;;;;;;;7.63;4.30;;;;;;;20.79;58.61;99219.94;5011242;28;20680;-65
2022/05/18 07:26:22;;;;;;;4.37;3.33;;;;;;;20.83;63.00;99218.50;5011468;28;20211;-65
2022/05/18 07:28:50;;;;;;;6.10;3.60;;;;;;;21.03;62.36;99217.69;4984687;28;20195;-66
2022/05/18 07:31:19;;;;;;;11.77;4.63;;;;;;;21.19;58.25;99219.13;5010790;28;20224;-66
2022/05/18 07:33:47;;;;;;;9.83;4.90;;;;;;;21.24;57.34;99216.66;5011161;28;20198;-66
2022/05/18 07:36:15;;;;;;;8.93;4.60;;;;;;;21.28;57.56;99217.06;4995397;28;20195;-66
2022/05/18 07:38:44;;;;;;;7.43;4.57;;;;;;;21.37;57.31;99226.47;5011281;28;20627;-65
2022/05/18 07:41:17;;;;;;;12.90;4.73;;;;;;;21.36;56.77;99220.31;5014101;28;20200;-65
2022/05/18 07:43:44;;;;;;;8.43;4.60;;;;;;;21.38;57.55;99228.09;4993795;28;20183;-65
2022/05/18 07:46:13;;;;;;;8.47;4.00;;;;;;;21.43;56.62;99233.59;5014697;28;20257;-66
2022/05/18 07:48:41;;;;;;;8.03;3.77;;;;;;;21.49;57.39;99226.63;4987476;28;20198;-65
2022/05/18 07:51:10;;;;;;;7.93;4.13;;;;;;;21.62;55.41;99231.13;4982345;28;20278;-64
2022/05/18 07:53:36;;;;;;;7.13;4.00;;;;;;;21.51;56.11;99233.38;4973869;28;20202;-64
2022/05/18 07:56:06;;;;;;;12.33;4.30;;;;;;;21.67;56.11;99241.97;4989821;28;20206;-64
2022/05/18 07:58:33;;;;;;;9.40;4.40;;;;;;;21.70;57.34;99243.38;4990735;28;20649;-64
2022/05/18 08:01:00;;;;;;;7.83;4.30;;;;;;;21.73;54.83;99242.97;4990077;28;20192;-64
2022/05/18 08:03:28;;;;;;;6.47;3.70;;;;;;;21.77;54.55;99239.66;4990955;28;20192;-64
2022/05/18 08:05:55;;;;;;;7.17;4.37;;;;;;;21.70;55.84;99240.72;4994284;28;20207;-64
2022/05/18 08:08:23;;;;;;;4.83;3.60;;;;;;;21.89;55.78;99239.00;5013899;28;20197;-65
2022/05/18 08:16:21;;;;;;;5.80;3.37;;;;;;;22.05;55.38;99243.06;5014218;28;20552;-65
2022/05/18 08:18:48;;;;;;;3.77;3.20;;;;;;;22.00;55.54;99246.34;5012475;28;20661;-65
2022/05/18 08:21:15;;;;;;;7.53;3.87;;;;;;;21.91;56.50;99248.44;4995137;28;20252;-65
2022/05/18 08:23:43;;;;;;;7.47;3.80;;;;;;;21.93;55.02;99251.69;4991481;28;20260;-65
2022/05/18 08:26:10;;;;;;;5.63;3.10;;;;;;;21.97;55.55;99244.94;4971690;28;20213;-65
2022/05/18 08:28:40;;;;;;;7.13;3.73;;;;;;;22.04;55.84;99250.19;4990297;28;20209;-65
2022/05/18 08:31:06;;;;;;;5.57;3.43;;;;;;;22.08;55.35;99243.44;4999725;28;20197;-64
2022/05/18 08:33:34;;;;;;;4.90;3.63;;;;;;;22.17;54.42;99244.03;5003374;28;20200;-65
2022/05/18 08:36:02;;;;;;;6.90;3.77;;;;;;;22.17;55.41;99240.53;4998792;28;20558;-65
2022/05/18 08:38:29;;;;;;;5.33;3.60;;;;;;;22.13;55.35;99242.81;4992135;28;20190;-65
2022/05/18 08:41:01;;;;;;;7.93;3.70;;;;;;;22.38;55.70;99248.22;5000280;28;20293;-65
2022/05/18 08:43:33;;;;;;;6.80;3.80;;;;;;;22.36;55.85;99236.97;4983850;28;20194;-65
2022/05/18 08:46:05;;;;;;;7.13;3.37;;;;;;;22.64;56.51;99242.97;5007018;28;20217;-65
2022/05/18 08:48:44;;;;;;;7.33;4.10;;;;;;;22.60;55.38;99236.44;4977592;28;20201;-65
2022/05/18 08:51:21;;;;;;;11.27;4.20;;;;;;;22.68;55.75;99245.00;4986160;28;20243;-65
2022/05/18 08:54:00;;;;;;;9.07;4.43;;;;;;;22.68;56.80;99242.34;4990643;28;20216;-65
2022/05/18 08:56:33;;;;;;;5.57;3.77;;;;;;;22.76;57.28;99246.56;4989560;28;20273;-65
2022/05/18 08:59:02;;;;;;;7.00;3.70;;;;;;;22.93;57.41;99243.38;4989819;28;20670;-65
2022/05/18 09:01:40;;;;;;;5.03;3.93;;;;;;;22.71;56.50;99241.09;4990680;28;20244;-65
2022/05/18 09:04:11;;;;;;;8.03;4.20;;;;;;;22.81;56.91;99235.28;4989240;28;20237;-65
2022/05/18 09:06:43;;;;;;;6.03;3.87;;;;;;;22.90;55.38;99233.16;4990240;28;20221;-65
2022/05/18 09:11:58;;;;;;;8.40;4.17;;;;;;;23.08;55.26;99227.91;4988870;28;20577;-64
2022/05/18 09:14:28;;;;;;;6.63;3.80;;;;;;;23.21;55.36;99232.28;4988543;28;20770;-64
2022/05/18 09:17:25;;;;;;;7.23;3.87;;;;;;;23.29;55.09;99236.56;4989780;28;20696;-64
2022/05/18 09:20:03;;;;;;;9.13;4.23;;;;;;;23.38;55.56;99227.22;4993378;28;20198;-64
2022/05/18 09:22:51;;;;;;;6.30;4.30;;;;;;;23.40;53.83;99238.47;4984449;28;20224;-64
2022/05/18 09:25:30;;;;;;;12.20;4.50;;;;;;;23.41;55.36;99237.44;4991737;28;20259;-64
2022/05/18 09:28:11;;;;;;;13.10;4.30;;;;;;;23.38;55.53;99235.22;4992783;28;20210;-64
2022/05/18 09:30:48;;;;;;;8.70;4.43;;;;;;;23.49;55.29;99228.38;5010195;28;20203;-64
2022/05/18 09:33:39;;;;;;;11.67;4.33;;;;;;;23.65;53.95;99218.97;5007508;28;20219;-64
2022/05/18 09:36:30;;;;;;;7.90;4.30;;;;;;;23.74;54.22;99214.16;5011931;28;20188;-64
2022/05/18 09:39:04;;;;;;;9.17;4.40;;;;;;;23.73;53.81;99217.88;4993773;28;20207;-64
2022/05/18 09:41:35;;;;;;;6.47;4.53;;;;;;;23.75;54.36;99210.47;4969141;28;20223;-64
2022/05/18 09:44:09;;;;;;;7.20;4.33;;;;;;;23.80;53.92;99210.59;4985172;28;20200;-64
2022/05/18 09:46:39;;;;;;;12.27;5.00;;;;;;;23.92;53.38;99204.50;4986613;28;20213;-64
2022/05/18 09:49:15;;;;;;;8.13;3.80;;;;;;;23.99;53.51;99208.75;4987508;28;20201;-64
2022/05/18 09:51:44;;;;;;;10.17;4.00;;;;;;;24.02;52.54;99213.63;4985897;28;20757;-64
2022/05/18 09:54:11;;;;;;;6.83;3.47;;;;;;;24.28;52.48;99217.00;4991381;28;20208;-64
2022/05/18 09:56:42;;;;;;;6.63;3.83;;;;;;;24.40;51.96;99213.53;4989450;28;20736;-64
2022/05/18 09:59:15;;;;;;;8.43;3.97;;;;;;;24.53;52.59;99207.19;4972663;28;20201;-64
2022/05/18 10:07:46;;;;;;;9.10;4.03;;;;;;;24.84;50.97;99208.78;4991575;28;20207;-64
2022/05/18 10:10:16;;;;;;;10.60;4.30;;;;;;;24.93;49.63;99198.56;4991627;28;20206;-64
2022/05/18 10:13:07;;;;;;;6.63;4.10;;;;;;;25.13;50.20;99198.25;4986349;28;20232;-64
2022/05/18 10:15:38;;;;;;;6.60;3.70;;;;;;;25.21;49.84;99199.75;4991783;28;20187;-64
2022/05/18 10:18:17;;;;;;;6.57;3.43;;;;;;;25.29;48.66;99199.38;4991375;28;20225;-64
2022/05/18 10:21:11;;;;;;;7.00;3.90;;;;;;;25.43;48.55;99193.81;4974709;28;20196;-64
2022/05/18 10:23:45;;;;;;;5.97;3.77;;;;;;;25.59;47.22;99198.44;4991713;28;20241;-64
2022/05/18 10:26:24;;;;;;;5.60;3.70;;;;;;;25.66;44.84;99195.63;4991662;28;20205;-64
2022/05/18 10:28:56;;;;;;;7.17;3.30;;;;;;;25.70;43.98;99191.44;4986406;28;20540;-64
2022/05/18 10:31:30;;;;;;;6.73;3.40;;;;;;;25.65;44.26;99194.00;4991160;28;20261;-64
2022/05/18 10:34:26;;;;;;;6.23;3.30;;;;;;;25.88;44.39;99195.00;4974224;28;20209;-64
2022/05/18 10:36:56;;;;;;;4.90;3.33;;;;;;;25.83;43.25;99192.22;4936318;28;20213;-64
2022/05/18 10:39:37;;;;;;;5.37;3.10;;;;;;;26.01;43.21;99194.72;4990488;28;20203;-64
2022/05/18 10:42:13;;;;;;;7.10;3.10;;;;;;;26.13;43.25;99186.63;4991658;28;20213;-65
2022/05/18 10:44:40;;;;;;;9.17;3.40;;;;;;;26.15;43.59;99186.44;4991912;28;20229;-64
2022/05/18 10:47:18;;;;;;;5.57;3.00;;;;;;;26.26;41.33;99182.06;4973879;28;20640;-64
2022/05/18 10:49:46;;;;;;;6.77;3.17;;;;;;;26.28;42.06;99178.13;4992073;28;20686;-64
2022/05/18 10:52:33;;;;;;;5.23;3.03;;;;;;;25.96;42.38;99181.25;4991761;28;20726;-64
2022/05/18 10:55:06;;;;;;;6.73;3.30;;;;;;;26.17;40.81;99170.97;4991114;28;20207;-64
2022/05/18 10:57:35;;;;;;;5.87;3.30;;;;;;;26.39;42.63;99168.38;4991832;28;20268;-65
2022/05/18 11:00:10;;;;;;;3.57;2.97;;;;;;;26.51;41.52;99171.81;4970968;28;20289;-64
2022/05/18 11:02:46;;;;;;;7.00;2.90;;;;;;;26.34;41.03;99158.41;4989414;28;20235;-64
2022/05/18 11:05:23;;;;;;;4.43;2.70;;;;;;;26.41;43.25;99154.78;4990044;28;20575;-59
2022/05/18 11:07:51;;;;;;;8.37;3.40;;;;;;;26.48;41.58;99156.22;4987667;28;20218;-66
2022/05/18 11:10:19;;;;;;;7.47;2.92;;;;;;;26.53;40.15;99159.00;5003241;28;20195;-64
2022/05/18 11:12:51;;;;;;;3.23;2.70;;;;;;;26.61;40.54;99149.72;5002554;28;20689;-64
2022/05/18 11:15:28;;;;;;;7.43;3.00;;;;;;;26.86;41.91;99142.38;5006684;28;20201;-63
2022/05/18 11:18:07;;;;;;;4.70;2.90;;;;;;;27.09;39.44;99141.34;5003355;28;20183;-64
2022/05/18 11:20:45;;;;;;;4.25;2.72;;;;;;;27.05;39.89;99140.22;5012451;28;20269;-64
2022/05/18 11:23:26;;;;;;;7.37;2.90;;;;;;;26.98;39.19;99136.91;5014594;28;20214;-65
2022/05/18 11:26:03;;;;;;;6.10;2.80;;;;;;;26.93;39.29;99130.41;4982606;28;20666;-64
2022/05/18 11:28:44;;;;;;;6.00;2.95;;;;;;;27.08;38.76;99129.00;5001071;28;20198;-64
2022/05/18 11:31:29;;;;;;;5.17;3.20;;;;;;;27.04;40.39;99127.88;5007970;28;20194;-64
2022/05/18 11:34:05;;;;;;;5.23;3.17;;;;;;;27.13;38.47;99134.44;5007746;28;20551;-64
2022/05/18 11:36:41;;;;;;;4.28;3.10;;;;;;;27.02;38.98;99127.31;5014583;28;20197;-64
2022/05/18 11:39:21;;;;;;;7.37;3.20;;;;;;;27.06;39.36;99118.53;5004336;28;20681;-64
2022/05/18 11:42:13;;;;;;;4.83;3.20;;;;;;;27.08;40.20;99129.81;5005351;28;20623;-64
2022/05/18 11:44:50;;;;;;;4.63;3.10;;;;;;;27.14;40.40;99128.03;5014514;28;20206;-64
2022/05/18 11:47:35;;;;;;;3.88;2.80;;;;;;;27.26;39.61;99117.19;5014246;28;20216;-64
2022/05/18 11:50:14;;;;;;;7.63;3.07;;;;;;;27.51;39.75;99119.41;5008276;28;20275;-64
2022/05/18 11:52:54;;;;;;;7.27;3.43;;;;;;;27.31;38.53;99119.13;5012528;28;20230;-64
2022/05/18 11:55:34;;;;;;;4.70;3.07;;;;;;;27.43;40.39;99110.94;4993867;28;20257;-64
2022/05/18 11:58:13;;;;;;;3.90;2.90;;;;;;;27.52;40.17;99112.97;5001518;28;20195;-64
2022/05/18 12:00:56;;;;;;;4.63;3.07;;;;;;;27.18;39.00;99101.53;5005334;28;20201;-64
2022/05/18 12:03:48;;;;;;;6.28;2.90;;;;;;;27.38;37.91;99107.13;5012720;28;20579;-64
2022/05/18 12:06:34;;;;;;;5.53;2.90;;;;;;;27.54;37.37;99091.25;5014014;28;20210;-64
2022/05/18 12:09:13;;;;;;;4.70;2.87;;;;;;;27.47;37.77;99098.66;5008564;28;20188;-64